ADDS METAR Data INFO
IDs: Format: Raw Decoded Include TAF

Data at: 1247 UTC 19 Oct 2017

KDSM 191154Z 08005KT 10SM FEW300 11/03 A3010 RMK AO2 SLP191 T01110033 10133 20106 51012
KDSM 191054Z 07005KT 10SM CLR 12/04 A3009 RMK AO2 SLP187 T01170044
KDSM 190954Z 08009KT 10SM CLR 12/05 A3008 RMK AO2 SLP181 T01220050
KDSM 190854Z 02004KT 10SM BCFG CLR 11/09 A3006 RMK AO2 SLP176 T01110089 51009
KDSM 190754Z 00000KT 10SM CLR 11/09 A3006 RMK AO2 SLP176 T01110089
KDSM 190654Z 00000KT 10SM FEW300 12/09 A3004 RMK AO2 SLP169 T01170094
KDSM 190554Z 00000KT 10SM CLR 13/09 A3003 RMK AO2 SLP168 T01280089 10194 20128 402390111 52001
KDSM 190454Z 27003KT 10SM OVC250 14/09 A3003 RMK AO2 SLP167 BINOVC NE T01390089
KDSM 190354Z 18003KT 10SM OVC250 14/09 A3003 RMK AO2 SLP167 T01390094
KDSM 190254Z 00000KT 10SM BKN250 17/09 A3003 RMK AO2 SLP166 T01720094 51017
KDSM 190154Z 21007KT 10SM BKN250 18/09 A3001 RMK AO2 SLP161 T01780094
KDSM 190054Z 21007KT 10SM BKN250 19/09 A3000 RMK AO2 SLP158 T01890089
KDSM 182354Z 22007KT 10SM FEW250 19/09 A2998 RMK AO2 SLP149 T01940089 10239 20194 53019
KDSM 182254Z 22009KT 10SM FEW250 22/09 A2995 RMK AO2 SLP139 T02170089
KDSM 182154Z 21010KT 10SM SCT250 23/09 A2993 RMK AO2 SLP132 T02330089
KDSM 182054Z 19014KT 10SM FEW250 24/09 A2992 RMK AO2 SLP127 T02390094 56006
KDSM 181954Z 20013KT 10SM FEW250 SCT300 24/09 A2992 RMK AO2 SLP128 T02390089
KDSM 181854Z 17013KT 10SM FEW250 BKN300 23/09 A2992 RMK AO2 SLP129 T02280094
KDSM 181754Z 19015KT 10SM SCT250 BKN300 22/09 A2994 RMK AO2 SLP135 T02170089 10217 20111 58010
KDSM 181654Z 20012KT 10SM SCT250 BKN300 21/08 A2996 RMK AO2 SLP142 T02060078
KDSM 181554Z 21015KT 10SM FEW250 SCT300 18/08 A2997 RMK AO2 SLP145 T01830078
KDSM 181454Z 19012KT 10SM FEW250 16/08 A2997 RMK AO2 SLP147 T01560083 58007
KDSM 181354Z 18011KT 10SM FEW250 13/08 A2999 RMK AO2 SLP154 T01280078
KDSM 181254Z 18010KT 10SM FEW250 12/07 A2998 RMK AO2 SLP153 T01170072
KDSM 181154Z 18009KT 10SM FEW250 12/07 A2999 RMK AO2 SLP154 T01170072 10139 20117 53002
KDSM 181054Z 19011KT 10SM CLR 12/08 A2999 RMK AO2 SLP152 T01220078
KDSM 180954Z 19013KT 10SM CLR 13/08 A2998 RMK AO2 SLP148 T01280078
KDSM 180854Z 18011KT 10SM CLR 13/08 A2998 RMK AO2 SLP150 T01330078 58012
KDSM 180754Z 19012KT 10SM CLR 14/08 A3000 RMK AO2 SLP157 T01390078
KDSM 180654Z 18010KT 10SM CLR 13/08 A3001 RMK AO2 SLP159 T01280078
KDSM 180554Z 17008KT 10SM CLR 12/08 A3002 RMK AO2 SLP163 T01220078 10178 20122 402280100 58010
KDSM 180454Z 17008KT 10SM CLR 12/08 A3003 RMK AO2 SLP166 T01220078
KDSM 180354Z 16007KT 10SM CLR 13/08 A3004 RMK AO2 SLP172 T01330078
KDSM 180254Z 17008KT 10SM CLR 14/08 A3005 RMK AO2 SLP175 T01390078 53007
KDSM 180154Z 17008KT 10SM CLR 15/07 A3004 RMK AO2 SLP170 T01500072
KDSM 180054Z 17007KT 10SM CLR 17/07 A3004 RMK AO2 SLP172 T01670072